createdAt,value
2018-07-30T00:00:43.365Z,69.73
2018-07-30T00:03:14.374Z,69.56
2018-07-30T00:05:44.994Z,69.73
2018-07-30T00:08:15.981Z,69.00
2018-07-30T00:10:46.601Z,68.92
2018-07-30T00:13:17.340Z,68.20
2018-07-30T00:15:47.918Z,68.29
2018-07-30T00:18:18.736Z,68.43
2018-07-30T00:20:49.437Z,68.46
2018-07-30T00:23:20.055Z,67.90
2018-07-30T00:25:50.653Z,68.15
2018-07-30T00:28:21.550Z,70.15
2018-07-30T00:30:52.277Z,70.42
2018-07-30T00:33:23.153Z,70.43
2018-07-30T00:35:53.842Z,72.16
2018-07-30T00:38:24.505Z,70.76
2018-07-30T00:40:55.212Z,70.21
2018-07-30T00:43:26.786Z,70.75
2018-07-30T00:45:57.672Z,70.83
2018-07-30T00:48:28.553Z,70.24
2018-07-30T00:50:59.048Z,69.60
2018-07-30T00:53:29.660Z,68.76
2018-07-30T00:56:00.181Z,69.64
2018-07-30T00:58:30.993Z,69.94
2018-07-30T01:01:01.564Z,71.60
2018-07-30T01:03:32.290Z,70.95
2018-07-30T01:06:02.838Z,69.58
2018-07-30T01:08:33.474Z,70.09
2018-07-30T01:11:04.156Z,69.60
2018-07-30T01:13:34.987Z,69.66
2018-07-30T01:16:05.620Z,69.16
2018-07-30T01:18:36.467Z,69.88
2018-07-30T01:21:06.860Z,68.61
2018-07-30T01:23:37.756Z,69.22
2018-07-30T01:26:13.253Z,70.06
2018-07-30T01:28:43.960Z,68.74
2018-07-30T01:31:14.528Z,67.77
2018-07-30T01:33:45.686Z,68.92
2018-07-30T01:36:16.414Z,69.04
2018-07-30T01:38:47.197Z,70.75
2018-07-30T01:41:18.013Z,69.38
2018-07-30T01:43:48.721Z,69.93
2018-07-30T01:46:19.370Z,68.96
2018-07-30T01:48:50.052Z,68.46
2018-07-30T01:51:20.735Z,68.40
2018-07-30T01:53:51.354Z,68.11
2018-07-30T01:56:21.937Z,69.77
2018-07-30T01:58:52.461Z,70.07
2018-07-30T02:01:23.316Z,69.59
2018-07-30T02:03:54.457Z,69.00
2018-07-30T02:06:25.193Z,68.28
2018-07-30T02:08:55.825Z,68.65
2018-07-30T02:11:26.445Z,69.67
2018-07-30T02:13:57.232Z,69.78
2018-07-30T02:16:27.820Z,70.99
2018-07-30T02:18:58.580Z,69.68
2018-07-30T02:21:29.349Z,70.52
2018-07-30T02:23:59.615Z,70.73
2018-07-30T02:26:30.214Z,70.65
2018-07-30T02:29:01.338Z,71.15
2018-07-30T02:31:31.872Z,70.22
2018-07-30T02:34:02.440Z,70.13
2018-07-30T02:36:33.206Z,70.03
2018-07-30T02:39:04.056Z,71.02
2018-07-30T02:41:34.661Z,71.18
2018-07-30T02:44:05.279Z,72.21
2018-07-30T02:46:35.963Z,70.28
2018-07-30T02:49:07.041Z,71.46
2018-07-30T02:51:37.646Z,70.15
2018-07-30T02:54:08.729Z,70.86
2018-07-30T02:56:39.344Z,72.38
2018-07-30T02:59:10.136Z,71.20
2018-07-30T03:01:40.818Z,71.31
2018-07-30T03:04:11.758Z,71.28
2018-07-30T03:06:42.404Z,71.88
2018-07-30T03:09:13.110Z,69.95
2018-07-30T03:11:43.144Z,69.86
2018-07-30T03:14:13.953Z,70.09
2018-07-30T03:16:44.647Z,69.89
2018-07-30T03:19:15.526Z,70.01
2018-07-30T03:21:46.278Z,69.95
2018-07-30T03:24:17.437Z,69.10
2018-07-30T03:26:48.084Z,69.65
2018-07-30T03:29:18.925Z,69.73
2018-07-30T03:31:49.601Z,69.74
2018-07-30T03:34:20.481Z,69.07
2018-07-30T03:36:51.140Z,70.31
2018-07-30T03:39:21.973Z,70.62
2018-07-30T03:41:52.595Z,71.98
2018-07-30T03:44:23.697Z,70.80
2018-07-30T03:46:54.372Z,71.25
2018-07-30T03:49:25.307Z,71.14
2018-07-30T03:51:55.817Z,70.30
2018-07-30T03:54:26.480Z,70.11
2018-07-30T03:56:57.136Z,70.68
2018-07-30T03:59:27.976Z,71.13
2018-07-30T04:01:58.710Z,71.40
2018-07-30T04:04:29.593Z,71.44
2018-07-30T04:07:00.190Z,70.94
2018-07-30T04:09:31.012Z,71.45
2018-07-30T04:12:01.694Z,70.40
2018-07-30T04:14:32.356Z,70.61
2018-07-30T04:17:02.736Z,71.68
2018-07-30T04:19:33.532Z,71.49
2018-07-30T04:22:04.137Z,70.07
2018-07-30T04:24:34.773Z,70.19
2018-07-30T04:27:05.332Z,71.12
2018-07-30T04:29:36.104Z,70.86
2018-07-30T04:32:06.892Z,70.39
2018-07-30T04:34:37.524Z,69.26
2018-07-30T04:37:08.198Z,69.98
2018-07-30T04:39:39.181Z,68.89
2018-07-30T04:42:09.797Z,67.72
2018-07-30T04:44:40.566Z,68.18
2018-07-30T04:47:11.370Z,68.49
2018-07-30T04:49:41.912Z,69.56
2018-07-30T04:52:12.460Z,68.03
2018-07-30T04:54:43.126Z,65.90
2018-07-30T04:57:13.781Z,65.40
2018-07-30T04:59:44.412Z,66.57
2018-07-30T05:02:14.992Z,64.48
2018-07-30T05:04:45.098Z,61.88
2018-07-30T05:07:15.972Z,59.56
2018-07-30T05:09:46.596Z,60.55
2018-07-30T05:12:17.305Z,58.31
2018-07-30T05:14:47.965Z,56.45
2018-07-30T05:17:18.788Z,55.45
2018-07-30T05:19:49.753Z,54.45
2018-07-30T05:22:20.461Z,57.75
2018-07-30T05:24:51.253Z,57.69
2018-07-30T05:27:22.173Z,56.58
2018-07-30T05:29:52.893Z,57.81
2018-07-30T05:32:23.944Z,60.24
2018-07-30T05:34:54.632Z,60.97
2018-07-30T05:37:25.341Z,59.11
2018-07-30T05:39:56.065Z,57.13
2018-07-30T05:42:27.261Z,57.89
2018-07-30T05:44:57.885Z,57.56
2018-07-30T05:47:28.869Z,55.69
2018-07-30T05:49:59.520Z,56.54
2018-07-30T05:52:30.702Z,56.54
2018-07-30T05:55:01.387Z,54.92
2018-07-30T05:57:31.967Z,57.56
2018-07-30T06:00:02.478Z,57.33
2018-07-30T06:02:34.349Z,57.61
2018-07-30T06:05:06.599Z,57.64
2018-07-30T06:07:36.953Z,56.17
2018-07-30T06:10:07.985Z,56.57
2018-07-30T06:12:38.485Z,54.01
2018-07-30T06:15:09.385Z,56.11
2018-07-30T06:17:39.801Z,55.41
2018-07-30T06:20:11.898Z,54.07
2018-07-30T06:22:42.490Z,52.49
2018-07-30T06:25:13.235Z,53.76
2018-07-30T06:27:44.073Z,53.60
2018-07-30T06:30:14.649Z,49.15
2018-07-30T06:32:45.486Z,50.34
2018-07-30T06:35:16.181Z,53.09
2018-07-30T06:37:46.849Z,53.44
2018-07-30T06:40:17.257Z,54.31
2018-07-30T06:42:48.100Z,51.96
2018-07-30T06:45:18.692Z,52.92
2018-07-30T06:47:49.630Z,53.43
2018-07-30T06:50:19.877Z,53.30
2018-07-30T06:52:50.824Z,54.03
2018-07-30T06:55:21.430Z,56.21
2018-07-30T06:57:52.565Z,55.77
2018-07-30T07:00:23.196Z,53.49
2018-07-30T07:02:53.920Z,53.21
2018-07-30T07:05:24.560Z,52.47
2018-07-30T07:07:56.281Z,52.84
2018-07-30T07:10:26.792Z,51.44
2018-07-30T07:12:57.420Z,51.96
2018-07-30T07:15:28.037Z,52.13
2018-07-30T07:17:58.844Z,51.35
2018-07-30T07:20:29.542Z,51.27
2018-07-30T07:23:00.126Z,51.16
2018-07-30T07:25:30.840Z,51.43
2018-07-30T07:28:01.770Z,50.24
2018-07-30T07:30:32.458Z,50.95
2018-07-30T07:33:03.188Z,51.30
2018-07-30T07:35:33.689Z,51.74
2018-07-30T07:38:04.453Z,51.50
2018-07-30T07:40:35.137Z,51.79
2018-07-30T07:43:05.876Z,53.00
2018-07-30T07:45:36.569Z,49.56
2018-07-30T07:48:07.188Z,50.18
2018-07-30T07:50:37.940Z,50.72
2018-07-30T07:53:08.853Z,49.35
2018-07-30T07:55:39.437Z,49.39
2018-07-30T07:58:10.247Z,46.93
2018-07-30T08:00:40.993Z,48.36
2018-07-30T08:03:11.700Z,44.29
2018-07-30T08:05:42.223Z,47.00
2018-07-30T08:08:13.057Z,45.37
2018-07-30T08:10:43.689Z,47.50
2018-07-30T08:13:14.492Z,49.33
2018-07-30T08:15:45.197Z,43.95
2018-07-30T08:18:15.981Z,45.10
2018-07-30T08:20:46.402Z,46.37
2018-07-30T08:23:16.978Z,47.69
2018-07-30T08:25:47.625Z,44.66
2018-07-30T08:28:18.388Z,44.22
2018-07-30T08:30:49.047Z,46.29
2018-07-30T08:33:19.866Z,44.42
2018-07-30T08:35:50.514Z,42.21
2018-07-30T08:38:21.288Z,44.53
2018-07-30T08:40:51.928Z,43.99
2018-07-30T08:43:22.733Z,43.08
2018-07-30T08:45:53.443Z,44.00
2018-07-30T08:48:24.133Z,42.61
2018-07-30T08:50:54.761Z,44.41
2018-07-30T08:53:25.444Z,45.25
2018-07-30T08:55:56.095Z,43.11
2018-07-30T08:58:26.897Z,41.16
2018-07-30T09:00:57.238Z,39.88
2018-07-30T09:03:27.941Z,39.04
2018-07-30T09:05:58.254Z,41.53
2018-07-30T09:08:28.927Z,38.87
2018-07-30T09:10:59.270Z,41.15
2018-07-30T09:13:30.161Z,40.67
2018-07-30T09:16:00.816Z,36.32
2018-07-30T09:18:31.621Z,40.07
2018-07-30T09:21:01.893Z,40.28
2018-07-30T09:23:32.188Z,40.03
2018-07-30T09:26:02.541Z,39.94
2018-07-30T09:28:32.772Z,40.82
2018-07-30T09:31:03.597Z,42.68
2018-07-30T09:33:34.421Z,43.45
2018-07-30T09:36:05.226Z,41.71
2018-07-30T09:38:35.620Z,42.00
2018-07-30T09:41:06.148Z,43.68
2018-07-30T09:43:36.377Z,47.11
2018-07-30T09:46:08.134Z,52.13
2018-07-30T09:48:38.845Z,51.96
2018-07-30T09:51:10.523Z,50.05
2018-07-30T09:53:41.225Z,52.14
2018-07-30T09:56:11.712Z,51.88
2018-07-30T09:58:42.061Z,52.96
2018-07-30T10:01:17.545Z,53.32
2018-07-30T10:03:47.794Z,53.36
2018-07-30T10:06:18.181Z,55.44
2018-07-30T10:08:48.779Z,55.62
2018-07-30T10:11:19.577Z,56.13
2018-07-30T10:13:49.600Z,56.82
2018-07-30T10:16:20.369Z,56.90
2018-07-30T10:18:51.105Z,55.92
2018-07-30T10:21:21.781Z,57.32
2018-07-30T10:23:52.469Z,55.74
2018-07-30T10:26:23.481Z,57.16
2018-07-30T10:28:54.247Z,59.28
2018-07-30T10:31:25.153Z,58.28
2018-07-30T10:33:55.813Z,57.95
2018-07-30T10:36:26.643Z,57.94
2018-07-30T10:38:57.283Z,57.33
2018-07-30T10:41:27.873Z,59.02
2018-07-30T10:43:58.409Z,56.99
2018-07-30T10:46:29.071Z,58.02
2018-07-30T10:48:59.729Z,56.59
2018-07-30T10:51:30.315Z,55.79
2018-07-30T10:54:01.132Z,56.34
2018-07-30T10:56:31.822Z,55.33
2018-07-30T10:59:02.462Z,54.94
2018-07-30T11:01:33.438Z,54.69
2018-07-30T11:04:04.068Z,56.51
2018-07-30T11:06:34.596Z,55.98
2018-07-30T11:09:07.173Z,54.95
2018-07-30T11:11:37.840Z,55.76
2018-07-30T11:14:08.729Z,54.72
2018-07-30T11:16:39.640Z,55.50
2018-07-30T11:19:10.261Z,55.62
2018-07-30T11:21:41.112Z,53.75
2018-07-30T11:24:11.705Z,55.03
2018-07-30T11:26:42.476Z,54.33
2018-07-30T11:29:13.104Z,53.74
2018-07-30T11:31:44.109Z,54.57
2018-07-30T11:34:14.699Z,54.73
2018-07-30T11:36:45.467Z,52.50
2018-07-30T11:39:16.111Z,52.41
2018-07-30T11:41:46.848Z,52.79
2018-07-30T11:44:17.416Z,51.65
2018-07-30T11:46:48.138Z,52.03
2018-07-30T11:49:18.826Z,50.69
2018-07-30T11:51:49.509Z,50.93
2018-07-30T11:54:20.403Z,51.52
2018-07-30T11:56:50.918Z,51.41
2018-07-30T11:59:21.565Z,49.88
2018-07-30T12:01:52.297Z,50.64
2018-07-30T12:04:23.173Z,52.20
2018-07-30T12:06:53.860Z,49.92
2018-07-30T12:09:24.504Z,50.54
2018-07-30T12:11:55.338Z,51.51
2018-07-30T12:14:25.916Z,51.78
2018-07-30T12:16:56.637Z,48.42
2018-07-30T12:19:27.249Z,49.38
2018-07-30T12:21:57.849Z,50.04
2018-07-30T12:24:28.529Z,50.75
2018-07-30T12:26:59.152Z,50.66
2018-07-30T12:29:29.851Z,49.63
2018-07-30T12:32:00.699Z,50.33
2018-07-30T12:34:31.529Z,50.94
2018-07-30T12:37:02.209Z,51.25
2018-07-30T12:39:32.985Z,52.90
2018-07-30T12:42:05.113Z,51.42
2018-07-30T12:44:35.832Z,53.89
2018-07-30T12:47:07.288Z,52.44
2018-07-30T12:49:37.920Z,53.23
2018-07-30T12:52:08.594Z,53.73
2018-07-30T12:54:39.216Z,52.93
2018-07-30T12:57:09.685Z,49.58
2018-07-30T12:59:40.336Z,52.21
2018-07-30T13:02:11.262Z,50.54
2018-07-30T13:04:41.921Z,50.06
2018-07-30T13:07:12.800Z,50.46
2018-07-30T13:09:43.377Z,50.02
2018-07-30T13:12:14.180Z,52.53
2018-07-30T13:14:44.789Z,52.44
2018-07-30T13:17:15.658Z,54.86
2018-07-30T13:19:46.261Z,54.19
2018-07-30T13:22:17.045Z,54.07
2018-07-30T13:24:47.673Z,52.77
2018-07-30T13:27:18.810Z,54.24
2018-07-30T13:29:49.467Z,55.59
2018-07-30T13:32:20.380Z,55.73
2018-07-30T13:34:51.005Z,55.85
2018-07-30T13:37:21.913Z,56.16
2018-07-30T13:39:52.484Z,55.29
2018-07-30T13:42:23.220Z,55.13
2018-07-30T13:44:53.910Z,56.45
2018-07-30T13:47:24.709Z,57.50
2018-07-30T13:49:55.378Z,60.75
2018-07-30T13:52:26.069Z,60.98
2018-07-30T13:54:56.353Z,61.55
2018-07-30T13:57:27.105Z,60.74
2018-07-30T13:59:57.683Z,60.36
2018-07-30T14:02:28.345Z,60.38
2018-07-30T14:04:59.005Z,58.52
2018-07-30T14:07:29.918Z,56.97
2018-07-30T14:10:00.531Z,56.95
2018-07-30T14:12:31.270Z,56.24
2018-07-30T14:15:01.942Z,56.17
2018-07-30T14:17:32.685Z,55.96
2018-07-30T14:20:03.361Z,55.90
2018-07-30T14:22:34.039Z,55.70
2018-07-30T14:25:04.017Z,54.20
2018-07-30T14:27:34.762Z,52.95
2018-07-30T14:30:06.965Z,53.90
2018-07-30T14:32:37.540Z,52.59
2018-07-30T14:35:08.355Z,54.04
2018-07-30T14:37:38.896Z,54.45
2018-07-30T14:40:12.018Z,54.47
2018-07-30T14:42:43.244Z,52.58
2018-07-30T14:45:13.917Z,54.19
2018-07-30T14:47:44.745Z,51.58
2018-07-30T14:50:15.368Z,53.21
2018-07-30T14:52:46.185Z,52.95
2018-07-30T14:55:16.805Z,52.14
2018-07-30T14:57:47.576Z,50.43
2018-07-30T15:00:18.223Z,49.05
2018-07-30T15:02:49.068Z,47.49
2018-07-30T15:05:21.997Z,46.55
2018-07-30T15:07:52.991Z,45.49
2018-07-30T15:10:23.508Z,42.98
2018-07-30T15:12:54.501Z,43.33
2018-07-30T15:15:25.057Z,43.77
2018-07-30T15:17:56.077Z,42.54
2018-07-30T15:20:26.761Z,42.05
2018-07-30T15:22:57.452Z,41.73
2018-07-30T15:25:28.221Z,39.21
2018-07-30T15:27:59.767Z,40.85
2018-07-30T15:30:30.541Z,40.52
2018-07-30T15:33:01.537Z,40.21
2018-07-30T15:35:32.168Z,40.84
2018-07-30T15:38:03.137Z,40.18
2018-07-30T15:40:33.750Z,39.82
2018-07-30T15:43:04.500Z,44.00
2018-07-30T15:45:35.257Z,42.25
2018-07-30T15:48:06.049Z,41.00
2018-07-30T15:50:36.729Z,42.61
2018-07-30T15:53:07.586Z,43.74
2018-07-30T15:55:38.304Z,41.09
2018-07-30T15:58:09.174Z,46.32
2018-07-30T16:00:39.704Z,45.71
2018-07-30T16:03:10.508Z,44.97
2018-07-30T16:05:41.195Z,45.39
2018-07-30T16:08:11.876Z,45.48
2018-07-30T16:10:42.441Z,44.80
2018-07-30T16:13:13.128Z,46.44
2018-07-30T16:15:43.796Z,44.97
2018-07-30T16:18:14.686Z,44.61
2018-07-30T16:20:45.416Z,45.05
2018-07-30T16:23:16.337Z,44.36
2018-07-30T16:25:47.149Z,43.72
2018-07-30T16:28:17.717Z,43.43
2018-07-30T16:30:48.498Z,46.14
2018-07-30T16:33:19.634Z,44.81
2018-07-30T16:35:50.381Z,44.35
2018-07-30T16:38:21.301Z,44.20
2018-07-30T16:40:52.009Z,44.63
2018-07-30T16:43:22.661Z,43.62
2018-07-30T16:45:53.367Z,44.92
2018-07-30T16:48:24.237Z,44.79
2018-07-30T16:50:54.938Z,44.06
2018-07-30T16:53:25.769Z,44.97
2018-07-30T16:55:56.241Z,44.61
2018-07-30T16:58:27.199Z,45.15
2018-07-30T17:00:57.893Z,44.68
2018-07-30T17:03:28.715Z,45.31
2018-07-30T17:05:59.482Z,43.67
2018-07-30T17:08:30.256Z,43.23
2018-07-30T17:11:00.810Z,44.47
2018-07-30T17:13:31.888Z,45.16
2018-07-30T17:16:02.528Z,46.23
2018-07-30T17:18:33.593Z,45.06
2018-07-30T17:21:04.181Z,46.17
2018-07-30T17:23:35.009Z,47.61
2018-07-30T17:26:05.569Z,49.50
2018-07-30T17:28:36.329Z,47.42
2018-07-30T17:31:06.932Z,48.12
2018-07-30T17:33:38.037Z,48.91
2018-07-30T17:36:08.651Z,48.83
2018-07-30T17:38:39.221Z,48.32
2018-07-30T17:41:09.981Z,48.89
2018-07-30T17:43:40.835Z,54.23
2018-07-30T17:46:11.642Z,59.32
2018-07-30T17:48:42.369Z,61.05
2018-07-30T17:51:13.014Z,61.58
2018-07-30T17:53:43.397Z,61.74
2018-07-30T17:56:14.157Z,62.03
2018-07-30T17:58:45.146Z,63.42
2018-07-30T18:01:15.786Z,63.73
2018-07-30T18:03:46.521Z,64.59
2018-07-30T18:06:17.036Z,65.20
2018-07-30T18:08:47.904Z,65.56
2018-07-30T18:11:18.524Z,65.25
2018-07-30T18:13:49.264Z,64.55
2018-07-30T18:16:19.920Z,64.55
2018-07-30T18:18:50.608Z,64.27
2018-07-30T18:21:21.080Z,63.82
2018-07-30T18:23:52.074Z,65.65
2018-07-30T18:26:22.716Z,65.53
2018-07-30T18:28:53.980Z,64.87
2018-07-30T18:31:24.598Z,64.41
2018-07-30T18:33:55.336Z,65.20
2018-07-30T18:36:25.961Z,64.57
2018-07-30T18:38:56.569Z,65.49
2018-07-30T18:41:27.158Z,66.08
2018-07-30T18:43:57.962Z,66.57
2018-07-30T18:46:28.681Z,68.90
2018-07-30T18:48:59.266Z,70.04
2018-07-30T18:51:29.938Z,69.64
2018-07-30T18:54:00.777Z,69.79
2018-07-30T18:56:31.430Z,70.15
2018-07-30T18:59:02.314Z,71.01
2018-07-30T19:01:33.025Z,70.36
2018-07-30T19:04:03.837Z,70.38
2018-07-30T19:06:34.597Z,71.50
2018-07-30T19:09:06.822Z,72.02
2018-07-30T19:11:37.448Z,71.66
2018-07-30T19:14:08.500Z,72.17
2018-07-30T19:16:38.960Z,73.35
2018-07-30T19:19:09.745Z,71.43
2018-07-30T19:21:40.483Z,71.36
2018-07-30T19:24:11.292Z,72.17
2018-07-30T19:26:42.010Z,72.77
2018-07-30T19:29:12.930Z,72.97
2018-07-30T19:31:43.029Z,72.90
2018-07-30T19:34:13.740Z,73.36
2018-07-30T19:36:44.416Z,73.67
2018-07-30T19:39:15.113Z,73.04
2018-07-30T19:41:45.780Z,71.56
2018-07-30T19:44:16.673Z,70.37
2018-07-30T19:46:47.348Z,70.86
2018-07-30T19:49:18.501Z,69.95
2018-07-30T19:51:49.131Z,70.39
2018-07-30T19:54:19.724Z,70.94
2018-07-30T19:56:50.385Z,71.66
2018-07-30T19:59:21.273Z,70.31
2018-07-30T20:01:52.013Z,71.78
2018-07-30T20:04:22.736Z,72.98
2018-07-30T20:06:53.431Z,74.67
2018-07-30T20:09:24.214Z,73.98
2018-07-30T20:11:54.791Z,73.67
2018-07-30T20:14:25.453Z,73.18
2018-07-30T20:16:56.222Z,72.37
2018-07-30T20:19:27.173Z,71.55
2018-07-30T20:21:57.730Z,72.40
2018-07-30T20:24:28.618Z,72.03
2018-07-30T20:26:59.201Z,71.36
2018-07-30T20:29:30.358Z,70.41
2018-07-30T20:32:01.024Z,71.58
2018-07-30T20:34:31.762Z,71.32
2018-07-30T20:37:02.515Z,70.14
2018-07-30T20:39:33.186Z,70.31
2018-07-30T20:42:03.714Z,69.24
2018-07-30T20:44:34.380Z,69.09
2018-07-30T20:47:05.109Z,69.11
2018-07-30T20:49:35.797Z,69.20
2018-07-30T20:52:06.441Z,70.44
2018-07-30T20:54:38.189Z,70.54
2018-07-30T20:57:08.769Z,69.92
2018-07-30T20:59:39.504Z,69.10
2018-07-30T21:02:10.349Z,70.52
2018-07-30T21:04:41.100Z,71.76
2018-07-30T21:07:11.690Z,71.83
2018-07-30T21:09:42.164Z,70.52
2018-07-30T21:12:12.831Z,68.81
2018-07-30T21:14:43.749Z,68.68
2018-07-30T21:17:14.489Z,69.28
2018-07-30T21:19:45.414Z,71.20
2018-07-30T21:22:16.065Z,69.71
2018-07-30T21:24:46.341Z,68.96
2018-07-30T21:27:17.054Z,68.73
2018-07-30T21:29:47.873Z,69.68
2018-07-30T21:32:18.568Z,69.04
2018-07-30T21:34:49.352Z,68.46
2018-07-30T21:37:19.905Z,69.84
2018-07-30T21:39:51.412Z,69.59
2018-07-30T21:42:22.079Z,69.38
2018-07-30T21:44:52.924Z,68.65
2018-07-30T21:47:23.496Z,69.32
2018-07-30T21:49:54.156Z,68.88
2018-07-30T21:52:24.740Z,68.19
2018-07-30T21:54:55.685Z,67.78
2018-07-30T21:57:26.425Z,69.12
2018-07-30T21:59:57.329Z,69.19
2018-07-30T22:02:28.016Z,68.02
2018-07-30T22:04:58.681Z,68.12
2018-07-30T22:07:29.352Z,68.17
2018-07-30T22:10:00.351Z,67.70
2018-07-30T22:12:30.989Z,67.89
2018-07-30T22:15:01.978Z,67.62
2018-07-30T22:17:32.252Z,67.55
2018-07-30T22:20:03.061Z,69.27
2018-07-30T22:22:33.748Z,69.98
2018-07-30T22:25:04.693Z,69.75
2018-07-30T22:27:35.320Z,68.81
2018-07-30T22:30:08.415Z,68.86
2018-07-30T22:32:39.039Z,68.28
2018-07-30T22:35:11.088Z,68.08
2018-07-30T22:37:41.690Z,67.91
2018-07-30T22:40:12.441Z,68.44
2018-07-30T22:42:43.176Z,68.56
2018-07-30T22:45:13.789Z,69.29
2018-07-30T22:47:44.497Z,68.93
2018-07-30T22:50:15.412Z,67.95
2018-07-30T22:52:46.194Z,68.51
2018-07-30T22:55:16.964Z,67.67
2018-07-30T22:57:47.168Z,68.74
2018-07-30T23:00:17.767Z,67.80
2018-07-30T23:02:48.452Z,67.22
2018-07-30T23:05:20.904Z,67.03
2018-07-30T23:07:51.765Z,67.74
2018-07-30T23:10:22.752Z,67.44
2018-07-30T23:12:53.289Z,68.32
2018-07-30T23:15:24.021Z,67.88
2018-07-30T23:17:54.753Z,68.01
2018-07-30T23:20:25.592Z,67.80
2018-07-30T23:22:56.382Z,67.15
2018-07-30T23:25:27.184Z,67.46
2018-07-30T23:27:57.708Z,67.83
2018-07-30T23:30:28.373Z,68.30
2018-07-30T23:32:58.849Z,68.24
2018-07-30T23:35:30.381Z,68.29
2018-07-30T23:38:00.978Z,68.96
2018-07-30T23:40:31.672Z,70.03
2018-07-30T23:43:02.340Z,70.22
2018-07-30T23:45:33.172Z,71.04
2018-07-30T23:48:03.816Z,70.41
2018-07-30T23:50:34.540Z,69.81
2018-07-30T23:53:05.360Z,68.52
2018-07-30T23:55:36.096Z,68.83
2018-07-30T23:58:06.833Z,69.00
